Darstellungsparameter: Aktuell verwendete Einstellungen:
Skalierung der Graphiken ... ?
xyx+y,   Skalierungsfaktor:      Skalierung: Modus: x, Faktor: 1
Darstellungszeitraum ... ?
Vom - - bis: - -   Zeitraum: 31.05.2011 - 06.06.2011
Min/Max/Avg-Anzeige ... ?
Zeige MMA aktuell
Zeige MMA Monat
Zeige MMA alles
Zeige --A aktuell
Zeige --A Monat
Zeige --A alles
Keine MMA-Anzeige
MMA:
Keine MMA-Graphiken
MMA-Basis: 31.05.2011 - 06.06.2011
Quicknavigation für Darstellung... ?
Tage:      1T, 2T, 3T, 5T -1T -2T -3T -5T +1T +2T +3T +5T
Wochen: 1W, 2W, 3W -1W -2W -3W +1W +2W +3W
Monate: 1M, 3M, 6M -1M -3M -6M +1M +3M +6M
Jahre:    1J, 3J, 5J, 10J -1J -3J -5J -10J +1J +3J +5J +10J
Nutze für die Darstellung ... ?
Originaldaten oder Mittelwerte auf ...
Stundenbasis Tagesbasis Wochenbasis
Monatsbasis Jahresbasis      Datenbasis: Original-Daten
Darstellen als:
Statistik (Auto) Statistik J:M      Darstellung:
Zur Graphik,    zurück zur Übersicht aller Sensoren.
 
Tabellarische Datenbersicht: ?
 
Sensor: Nr:Datum:Temp:Abs-Feuchte:Windchill:Wind:
Aussen-T/F 1 31-05-2011 00:00:02 19.8 C 7.17 g/m*3 19.8 C 0 km/h
2 31-05-2011 00:12:02 19.1 C 7.21 g/m*3 19.1 C 0 km/h
3 31-05-2011 00:24:02 18.6 C 7.32 g/m*3 18.6 C 0 km/h
4 31-05-2011 00:36:02 17.9 C 7.48 g/m*3 17.9 C 0 km/h
5 31-05-2011 00:48:02 17.4 C 7.41 g/m*3 17.4 C 0 km/h
6 31-05-2011 01:00:02 16.9 C 7.48 g/m*3 16.9 C 0 km/h
7 31-05-2011 01:12:02 16.6 C 7.49 g/m*3 16.6 C 0 km/h
8 31-05-2011 01:24:02 16.4 C 7.4 g/m*3 16.4 C 0 km/h
9 31-05-2011 01:36:03 16.3 C 7.49 g/m*3 16.3 C 0 km/h
10 31-05-2011 01:48:03 16.8 C 8.01 g/m*3 16.8 C 0 km/h
11 31-05-2011 02:00:03 16.6 C 8.05 g/m*3 16.6 C 0 km/h
12 31-05-2011 02:12:03 16.5 C 7.86 g/m*3 16.5 C 0 km/h
13 31-05-2011 02:24:03 17.2 C 7.61 g/m*3 17.2 C 0 km/h
14 31-05-2011 02:36:03 17.6 C 7.8 g/m*3 17.6 C 0 km/h
15 31-05-2011 02:48:03 17.3 C 7.81 g/m*3 17.3 C 0 km/h
16 31-05-2011 03:00:03 16.9 C 8.2 g/m*3 16.9 C 0 km/h
17 31-05-2011 03:12:03 17.2 C 8.05 g/m*3 17.2 C 0 km/h
18 31-05-2011 03:24:03 17.7 C 7.85 g/m*3 17.7 C 0 km/h
19 31-05-2011 03:36:03 17.3 C 7.81 g/m*3 17.3 C 0 km/h
20 31-05-2011 03:48:03 15.9 C 7.85 g/m*3 15.9 C 0 km/h
21 31-05-2011 04:00:03 15.2 C 7.79 g/m*3 15.2 C 0 km/h
22 31-05-2011 04:12:03 15.7 C 8.16 g/m*3 15.7 C 0 km/h
23 31-05-2011 04:24:03 15.9 C 8.13 g/m*3 15.9 C 0 km/h
24 31-05-2011 04:36:03 15.5 C 8.2 g/m*3 15.5 C 0 km/h
25 31-05-2011 04:48:03 15.4 C 8.28 g/m*3 15.4 C 0 km/h
Sensor: Nr:Datum:Temp:Abs-Feuchte:Windchill:Wind:
Aussen-T/F 26 31-05-2011 05:00:03 15.4 C 8.15 g/m*3 15.4 C 0 km/h
27 31-05-2011 05:12:03 15.3 C 8.23 g/m*3 15.3 C 0 km/h
28 31-05-2011 05:24:03 15.7 C 8.43 g/m*3 15.7 C 0 km/h
29 31-05-2011 05:36:04 15.8 C 8.35 g/m*3 15.8 C 0 km/h
30 31-05-2011 05:48:04 15.3 C 8.23 g/m*3 15.3 C 0 km/h
31 31-05-2011 06:00:04 15 C 8.33 g/m*3 15 C 0 km/h
32 31-05-2011 06:12:04 15.4 C 8.41 g/m*3 15.4 C 0 km/h
33 31-05-2011 06:24:04 16.4 C 8.51 g/m*3 16.4 C 0 km/h
34 31-05-2011 06:36:04 15.9 C 8.4 g/m*3 15.9 C 0 km/h
35 31-05-2011 06:48:04 15.9 C 8.8 g/m*3 15.9 C 0 km/h
36 31-05-2011 07:00:04 16.8 C 8.72 g/m*3 16.8 C 0 km/h
37 31-05-2011 07:12:04 17.2 C 8.79 g/m*3 17.2 C 0 km/h
38 31-05-2011 07:24:01 17.7 C 8.6 g/m*3 17.7 C 0 km/h
39 31-05-2011 07:36:02 18.3 C 8.29 g/m*3 18.3 C 0 km/h
40 31-05-2011 07:48:01 18.1 C 8.5 g/m*3 18.1 C 0 km/h
41 31-05-2011 08:00:01 18 C 8.75 g/m*3 18 C 0 km/h
42 31-05-2011 08:12:02 18.1 C 8.81 g/m*3 18.1 C 0 km/h
43 31-05-2011 08:24:01 18.6 C 8.59 g/m*3 18.6 C 0 km/h
44 31-05-2011 08:36:02 19.3 C 8.29 g/m*3 19.3 C 0 km/h
45 31-05-2011 08:48:01 19.8 C 8.2 g/m*3 19.8 C 0 km/h
46 31-05-2011 09:00:01 19.1 C 8.03 g/m*3 19.1 C 0 km/h
47 31-05-2011 09:12:02 18 C 8.29 g/m*3 18 C 0 km/h
48 31-05-2011 09:24:01 16.4 C 9.07 g/m*3 16.4 C 0 km/h
49 31-05-2011 09:36:01 16 C 9.95 g/m*3 16 C 0 km/h
50 31-05-2011 09:48:01 16.1 C 10.55 g/m*3 16.1 C 0 km/h
Sensor: Nr:Datum:Temp:Abs-Feuchte:Windchill:Wind:
Aussen-T/F 51 31-05-2011 10:00:01 16.3 C 10.68 g/m*3 16.3 C 0 km/h
52 31-05-2011 10:12:01 17.1 C 10.34 g/m*3 17.1 C 0 km/h
53 31-05-2011 10:24:02 17.5 C 10.14 g/m*3 17.5 C 0 km/h
54 31-05-2011 10:36:01 17.7 C 10.11 g/m*3 17.7 C 0 km/h
55 31-05-2011 10:48:01 17.3 C 9.87 g/m*3 17.3 C 0 km/h
56 31-05-2011 11:00:01 16.6 C 10.03 g/m*3 16.6 C 0 km/h
57 31-05-2011 11:12:01 15.8 C 10.23 g/m*3 15.8 C 0 km/h
58 31-05-2011 11:24:02 15.1 C 10.32 g/m*3 15.1 C 0 km/h
59 31-05-2011 11:36:01 14.4 C 10.14 g/m*3 14.4 C 0 km/h
60 31-05-2011 11:48:02 14.1 C 10.07 g/m*3 14.1 C 0 km/h
61 31-05-2011 12:00:02 14.4 C 10.38 g/m*3 14.4 C 0 km/h
62 31-05-2011 12:12:01 14.2 C 10.14 g/m*3 14.2 C 0 km/h
63 31-05-2011 12:24:02 14.4 C 10.38 g/m*3 14.4 C 0 km/h
64 31-05-2011 12:36:01 14.4 C 10.38 g/m*3 14.4 C 0 km/h
65 31-05-2011 12:48:02 14.4 C 10.38 g/m*3 14.4 C 0 km/h
66 31-05-2011 13:00:02 14.4 C 10.38 g/m*3 14.4 C 0 km/h
67 31-05-2011 13:12:01 14.8 C 10.64 g/m*3 14.8 C 0 km/h
68 31-05-2011 13:24:02 15.1 C 10.71 g/m*3 15.1 C 0 km/h
69 31-05-2011 13:36:01 14.9 C 10.71 g/m*3 14.9 C 0 km/h
70 31-05-2011 13:48:02 14.7 C 10.58 g/m*3 14.7 C 0 km/h
71 31-05-2011 14:00:02 14.7 C 10.58 g/m*3 14.7 C 0 km/h
72 31-05-2011 14:12:01 15 C 10.64 g/m*3 15 C 0 km/h
73 31-05-2011 14:24:01 15.3 C 10.84 g/m*3 15.3 C 0 km/h
74 31-05-2011 14:36:02 15.1 C 10.06 g/m*3 15.1 C 0 km/h
75 31-05-2011 14:48:01 14.8 C 10.26 g/m*3 14.8 C 0 km/h
Sensor: Nr:Datum:Temp:Abs-Feuchte:Windchill:Wind:
Aussen-T/F 76 31-05-2011 15:00:01 14.6 C 10.26 g/m*3 14.6 C 0 km/h
77 31-05-2011 15:12:02 14.5 C 10.2 g/m*3 14.5 C 0 km/h
78 31-05-2011 15:24:01 15.3 C 10.32 g/m*3 15.3 C 0 km/h
79 31-05-2011 15:36:02 15.4 C 10.25 g/m*3 15.4 C 0 km/h
80 31-05-2011 15:48:01 14.4 C 9.89 g/m*3 14.4 C 0 km/h
81 31-05-2011 16:00:01 14.2 C 9.52 g/m*3 14.2 C 0 km/h
82 31-05-2011 16:12:02 14.2 C 9.65 g/m*3 14.2 C 0 km/h
83 31-05-2011 16:24:01 14 C 9.41 g/m*3 14 C 0 km/h
84 31-05-2011 16:36:01 13.8 C 9.53 g/m*3 13.8 C 0 km/h
85 31-05-2011 16:48:01 13.7 C 9.59 g/m*3 13.7 C 0 km/h
86 31-05-2011 17:00:01 13.3 C 9.36 g/m*3 13.3 C 0 km/h
87 31-05-2011 17:12:02 13.2 C 9.19 g/m*3 13.2 C 0 km/h
88 31-05-2011 17:24:01 12.8 C 8.96 g/m*3 12.8 C 0 km/h
89 31-05-2011 17:36:01 13 C 9.07 g/m*3 13 C 0 km/h
90 31-05-2011 17:48:02 12.7 C 9.02 g/m*3 12.7 C 0 km/h
91 31-05-2011 18:00:02 12.6 C 8.96 g/m*3 12.6 C 0 km/h
92 31-05-2011 18:12:01 12.4 C 8.74 g/m*3 12.4 C 0 km/h
93 31-05-2011 18:24:02 12.5 C 8.69 g/m*3 12.5 C 0 km/h
94 31-05-2011 18:36:01 12.3 C 8.58 g/m*3 12.3 C 0 km/h
95 31-05-2011 18:48:02 12.2 C 8.52 g/m*3 12.2 C 0 km/h
96 31-05-2011 19:00:02 12.2 C 8.42 g/m*3 12.2 C 0 km/h
97 31-05-2011 19:12:01 12.2 C 8.42 g/m*3 12.2 C 0 km/h
98 31-05-2011 19:24:01 12 C 8.42 g/m*3 12 C 0 km/h
99 31-05-2011 19:36:01 11.9 C 8.58 g/m*3 11.9 C 0 km/h
100 31-05-2011 19:48:01 11.7 C 8.68 g/m*3 11.7 C 0 km/h
Sensor: Nr:Datum:Temp:Abs-Feuchte:Windchill:Wind:
Aussen-T/F 101 31-05-2011 20:00:02 11.8 C 8.84 g/m*3 11.8 C 0 km/h
102 31-05-2011 20:12:01 11.6 C 8.83 g/m*3 11.6 C 0 km/h
103 31-05-2011 20:24:01 11.8 C 9.05 g/m*3 11.8 C 0 km/h
104 31-05-2011 20:36:02 11.6 C 8.83 g/m*3 11.6 C 0 km/h
105 31-05-2011 20:48:01 11.6 C 8.83 g/m*3 11.6 C 0 km/h
106 31-05-2011 21:00:01 11.3 C 8.57 g/m*3 11.3 C 0 km/h
107 31-05-2011 21:12:02 11.2 C 8.51 g/m*3 11.2 C 0 km/h
108 31-05-2011 21:24:01 11 C 8.31 g/m*3 11 C 0 km/h
109 31-05-2011 21:36:02 10.8 C 8.3 g/m*3 10.8 C 0 km/h
110 31-05-2011 21:48:01 10.9 C 8.45 g/m*3 10.9 C 0 km/h
111 31-05-2011 22:00:01 10.8 C 8.5 g/m*3 10.8 C 0 km/h
112 31-05-2011 22:12:02 10.8 C 8.6 g/m*3 10.8 C 0 km/h
113 31-05-2011 22:24:01 10.7 C 8.55 g/m*3 10.7 C 0 km/h
114 31-05-2011 22:36:01 10.7 C 8.64 g/m*3 10.7 C 0 km/h
115 31-05-2011 22:49:05 10.7 C 8.64 g/m*3 10.7 C 0 km/h
116 31-05-2011 23:01:05 10.6 C 8.59 g/m*3 10.6 C 0 km/h
117 31-05-2011 23:13:05 10.6 C 8.59 g/m*3 10.6 C 0 km/h
118 31-05-2011 23:25:05 10.7 C 8.64 g/m*3 10.7 C 0 km/h
119 31-05-2011 23:37:05 10.7 C 8.64 g/m*3 10.7 C 0 km/h
120 31-05-2011 23:49:05 10.7 C 8.64 g/m*3 10.7 C 0 km/h
121 01-06-2011 00:01:05 10.5 C 8.53 g/m*3 10.5 C 0 km/h
122 01-06-2011 00:13:05 10.6 C 8.59 g/m*3 10.6 C 0 km/h
123 01-06-2011 00:25:05 10.7 C 8.55 g/m*3 10.7 C 0 km/h
124 01-06-2011 00:37:05 10.8 C 8.6 g/m*3 10.8 C 0 km/h
125 01-06-2011 00:49:05 10.6 C 8.49 g/m*3 10.6 C 0 km/h
Sensor: Nr:Datum:Temp:Abs-Feuchte:Windchill:Wind:
Aussen-T/F 126 01-06-2011 01:01:05 10.5 C 8.53 g/m*3 10.5 C 0 km/h
127 01-06-2011 01:13:05 10.4 C 8.48 g/m*3 10.4 C 0 km/h
128 01-06-2011 01:25:05 10.5 C 8.53 g/m*3 10.5 C 0 km/h
129 01-06-2011 01:37:05 10.5 C 8.53 g/m*3 10.5 C 0 km/h
130 01-06-2011 01:49:05 10.3 C 8.43 g/m*3 10.3 C 0 km/h
131 01-06-2011 02:01:06 10.4 C 8.48 g/m*3 10.4 C 0 km/h
132 01-06-2011 02:13:06 10.4 C 8.48 g/m*3 10.4 C 0 km/h
133 01-06-2011 02:25:06 10.1 C 8.32 g/m*3 10.1 C 0 km/h
134 01-06-2011 02:37:06 10.3 C 8.43 g/m*3 10.3 C 0 km/h
135 01-06-2011 02:49:06 10.2 C 8.37 g/m*3 10.2 C 0 km/h
136 01-06-2011 03:01:06 10.3 C 8.43 g/m*3 10.3 C 0 km/h
137 01-06-2011 03:13:06 10.4 C 8.48 g/m*3 10.4 C 0 km/h
138 01-06-2011 03:25:06 10.2 C 8.09 g/m*3 10.2 C 0 km/h
139 01-06-2011 03:37:06 10.1 C 7.85 g/m*3 10.1 C 0 km/h
140 01-06-2011 03:49:06 10.1 C 7.75 g/m*3 10.1 C 0 km/h
141 01-06-2011 04:01:06 10 C 7.71 g/m*3 10 C 0 km/h
142 01-06-2011 04:13:06 10.1 C 7.66 g/m*3 10.1 C 0 km/h
143 01-06-2011 04:25:06 10.1 C 7.56 g/m*3 10.1 C 0 km/h
144 01-06-2011 04:37:06 9.8 C 7.52 g/m*3 9.8 C 0 km/h
145 01-06-2011 04:49:06 9.7 C 7.65 g/m*3 9.7 C 0 km/h
146 01-06-2011 05:01:06 9.5 C 7.55 g/m*3 9.5 C 0 km/h
147 01-06-2011 05:13:06 9.6 C 7.69 g/m*3 9.6 C 0 km/h
148 01-06-2011 05:25:06 9.5 C 7.65 g/m*3 9.5 C 0 km/h
149 01-06-2011 05:37:06 9.5 C 7.65 g/m*3 9.5 C 0 km/h
150 01-06-2011 05:49:06 9.5 C 7.65 g/m*3 9.5 C 0 km/h
Sensor: Nr:Datum:Temp:Abs-Feuchte:Windchill:Wind:
Aussen-T/F 151 01-06-2011 06:01:06 9.7 C 7.74 g/m*3 9.7 C 0 km/h
152 01-06-2011 06:13:07 9.8 C 7.79 g/m*3 9.8 C 0 km/h
153 01-06-2011 06:25:07 9.8 C 7.7 g/m*3 9.8 C 0 km/h
154 01-06-2011 06:37:07 9.9 C 7.66 g/m*3 9.9 C 0 km/h
155 01-06-2011 06:49:07 10.1 C 7.47 g/m*3 10.1 C 0 km/h
156 01-06-2011 07:01:07 10.3 C 7.37 g/m*3 10.3 C 0 km/h
157 01-06-2011 07:13:07 10.4 C 7.32 g/m*3 10.4 C 0 km/h
158 01-06-2011 07:25:03 10.5 C 7.18 g/m*3 10.5 C 0 km/h
159 01-06-2011 07:37:04 10.6 C 7.12 g/m*3 10.6 C 0 km/h
160 01-06-2011 07:49:02 10.4 C 7.04 g/m*3 10.4 C 0 km/h
161 01-06-2011 08:01:01 10.2 C 6.95 g/m*3 10.2 C 0 km/h
162 01-06-2011 08:13:01 10.6 C 7.12 g/m*3 10.6 C 0 km/h
163 01-06-2011 08:25:02 11 C 7.01 g/m*3 11 C 0 km/h
164 01-06-2011 08:37:01 11.3 C 7.04 g/m*3 11.3 C 0 km/h
165 01-06-2011 08:49:01 11.5 C 6.92 g/m*3 11.5 C 0 km/h
166 01-06-2011 09:01:02 11.6 C 6.86 g/m*3 11.6 C 0 km/h
167 01-06-2011 09:13:02 11.9 C 6.88 g/m*3 11.9 C 0 km/h
168 01-06-2011 09:25:02 12 C 6.71 g/m*3 12 C 0 km/h
169 01-06-2011 09:37:02 12.4 C 6.77 g/m*3 12.4 C 0 km/h
170 01-06-2011 09:49:02 12.2 C 6.58 g/m*3 12.2 C 0 km/h
171 01-06-2011 10:01:01 12.2 C 6.58 g/m*3 12.2 C 0 km/h
172 01-06-2011 10:13:01 12.7 C 6.46 g/m*3 12.7 C 0 km/h
173 01-06-2011 10:25:02 12.7 C 5.9 g/m*3 12.7 C 0 km/h
174 01-06-2011 10:37:02 13.2 C 6.32 g/m*3 13.2 C 0 km/h
175 01-06-2011 10:49:02 13.2 C 6.32 g/m*3 13.2 C 0 km/h
Sensor: Nr:Datum:Temp:Abs-Feuchte:Windchill:Wind:
Aussen-T/F 176 01-06-2011 11:01:02 13.2 C 6.32 g/m*3 13.2 C 0 km/h
177 01-06-2011 11:13:02 13.2 C 6.32 g/m*3 13.2 C 0 km/h
178 01-06-2011 11:25:02 13.2 C 6.32 g/m*3 13.2 C 0 km/h
179 01-06-2011 11:37:02 13.2 C 6.32 g/m*3 13.2 C 0 km/h
180 01-06-2011 11:49:02 16 C 5.45 g/m*3 16 C 0 km/h
181 01-06-2011 12:01:03 16 C 5.45 g/m*3 16 C 0 km/h
182 01-06-2011 12:13:03 16 C 5.45 g/m*3 16 C 0 km/h
183 01-06-2011 12:25:02 17.1 C 5.68 g/m*3 17.1 C 0 km/h
184 01-06-2011 12:37:02 17.5 C 5.52 g/m*3 17.5 C 0 km/h
185 01-06-2011 12:49:02 18.1 C 5.56 g/m*3 18.1 C 0 km/h
186 01-06-2011 13:01:01 18.7 C 5.76 g/m*3 18.7 C 0 km/h
187 01-06-2011 13:13:01 17.7 C 5.28 g/m*3 17.7 C 0 km/h
188 01-06-2011 13:25:01 17.7 C 5.28 g/m*3 17.7 C 0 km/h
189 01-06-2011 13:37:01 18.5 C 5.54 g/m*3 18.5 C 0 km/h
190 01-06-2011 13:49:02 18.5 C 5.54 g/m*3 18.5 C 0 km/h
191 01-06-2011 14:01:02 18.5 C 5.54 g/m*3 18.5 C 0 km/h
192 01-06-2011 14:13:02 18.5 C 5.54 g/m*3 18.5 C 0 km/h
193 01-06-2011 14:25:02 20.6 C 5.01 g/m*3 20.6 C 0 km/h
194 01-06-2011 14:37:03 21 C 4.76 g/m*3 21 C 0 km/h
195 01-06-2011 14:49:02 19.8 C 4.95 g/m*3 19.8 C 0 km/h
196 01-06-2011 15:01:03 20.3 C 5.1 g/m*3 20.3 C 0 km/h
197 01-06-2011 15:13:03 23 C 4.93 g/m*3 23 C 0 km/h
198 01-06-2011 15:25:02 20.7 C 4.86 g/m*3 20.7 C 0 km/h
199 01-06-2011 15:37:02 20.5 C 4.98 g/m*3 20.5 C 0 km/h
200 01-06-2011 15:49:02 21.3 C 4.66 g/m*3 21.3 C 0 km/h
Sensor: Nr:Datum:Temp:Abs-Feuchte:Windchill:Wind:
Aussen-T/F 201 01-06-2011 16:01:03 22.1 C 3.9 g/m*3 22.1 C 0 km/h
202 01-06-2011 16:13:03 21.1 C 4.24 g/m*3 21.1 C 0 km/h
203 01-06-2011 16:25:03 21.7 C 4.39 g/m*3 21.7 C 0 km/h
204 01-06-2011 16:37:02 20.9 C 4.55 g/m*3 20.9 C 0 km/h
205 01-06-2011 16:49:02 21.7 C 4.77 g/m*3 21.7 C 0 km/h
206 01-06-2011 17:01:02 20.9 C 4.74 g/m*3 20.9 C 0 km/h
207 01-06-2011 17:13:02 21.6 C 4.74 g/m*3 21.6 C 0 km/h
208 01-06-2011 17:25:02 20.3 C 4.75 g/m*3 20.3 C 0 km/h
209 01-06-2011 17:37:03 19.7 C 5.09 g/m*3 19.7 C 0 km/h
210 01-06-2011 17:49:02 19.5 C 5.03 g/m*3 19.5 C 0 km/h
211 01-06-2011 18:01:03 19.6 C 5.06 g/m*3 19.6 C 0 km/h
212 01-06-2011 18:13:03 19.8 C 5.12 g/m*3 19.8 C 0 km/h
213 01-06-2011 18:25:02 19.9 C 5.15 g/m*3 19.9 C 0 km/h
214 01-06-2011 18:37:03 20.1 C 5.21 g/m*3 20.1 C 0 km/h
215 01-06-2011 18:49:02 20.1 C 5.56 g/m*3 20.1 C 0 km/h
216 01-06-2011 19:01:02 19.5 C 5.2 g/m*3 19.5 C 0 km/h
217 01-06-2011 19:13:02 19.8 C 5.64 g/m*3 19.8 C 0 km/h
218 01-06-2011 19:25:01 21 C 5.31 g/m*3 21 C 0 km/h
219 01-06-2011 19:37:02 22.8 C 4.47 g/m*3 22.8 C 0 km/h
220 01-06-2011 19:49:02 20 C 5.01 g/m*3 20 C 0 km/h
221 01-06-2011 20:01:02 18.9 C 5.18 g/m*3 18.9 C 0 km/h
222 01-06-2011 20:13:02 18.5 C 5.22 g/m*3 18.5 C 0 km/h
223 01-06-2011 20:25:02 18 C 5.38 g/m*3 18 C 0 km/h
224 01-06-2011 20:37:02 17.7 C 6.04 g/m*3 17.7 C 0 km/h
225 01-06-2011 20:49:02 17.9 C 6.41 g/m*3 17.9 C 0 km/h
Sensor: Nr:Datum:Temp:Abs-Feuchte:Windchill:Wind:
Aussen-T/F 226 01-06-2011 21:01:02 17.5 C 6.26 g/m*3 17.5 C 0 km/h
227 01-06-2011 21:13:02 17 C 5.93 g/m*3 17 C 0 km/h
228 01-06-2011 21:25:03 17.2 C 5.56 g/m*3 17.2 C 0 km/h
229 01-06-2011 21:37:03 17 C 5.64 g/m*3 17 C 0 km/h
230 01-06-2011 21:49:03 16.9 C 5.9 g/m*3 16.9 C 0 km/h
231 01-06-2011 22:01:03 16.6 C 5.93 g/m*3 16.6 C 0 km/h
232 01-06-2011 22:13:03 16.6 C 5.93 g/m*3 16.6 C 0 km/h
233 01-06-2011 22:25:02 16.2 C 7.03 g/m*3 16.2 C 0 km/h
234 01-06-2011 22:37:02 16.2 C 7.03 g/m*3 16.2 C 0 km/h
235 01-06-2011 22:49:02 15.8 C 6.19 g/m*3 15.8 C 0 km/h
236 01-06-2011 23:02:18 15.8 C 6.33 g/m*3 15.8 C 0 km/h
237 01-06-2011 23:14:18 15.9 C 5.96 g/m*3 15.9 C 0 km/h
238 01-06-2011 23:26:18 15.8 C 6.06 g/m*3 15.8 C 0 km/h
239 01-06-2011 23:38:18 15.8 C 6.06 g/m*3 15.8 C 0 km/h
240 01-06-2011 23:50:18 15.7 C 6.02 g/m*3 15.7 C 0 km/h
241 02-06-2011 00:02:18 15.5 C 6.21 g/m*3 15.5 C 0 km/h
242 02-06-2011 00:14:19 15.2 C 6.36 g/m*3 15.2 C 0 km/h
243 02-06-2011 00:26:19 15.2 C 6.23 g/m*3 15.2 C 0 km/h
244 02-06-2011 00:38:19 14.8 C 7.22 g/m*3 14.8 C 0 km/h
245 02-06-2011 00:50:19 14.3 C 7.25 g/m*3 14.3 C 0 km/h
246 02-06-2011 01:02:19 14.1 C 7.28 g/m*3 14.1 C 0 km/h
247 02-06-2011 01:14:19 13.9 C 7.43 g/m*3 13.9 C 0 km/h
248 02-06-2011 01:26:19 13.8 C 7.39 g/m*3 13.8 C 0 km/h
249 02-06-2011 01:38:19 13.8 C 7.27 g/m*3 13.8 C 0 km/h
250 02-06-2011 01:50:19 13.7 C 7.34 g/m*3 13.7 C 0 km/h
Sensor: Nr:Datum:Temp:Abs-Feuchte:Windchill:Wind:
Aussen-T/F 251 02-06-2011 02:02:19 13.7 C 7.46 g/m*3 13.7 C 0 km/h
252 02-06-2011 02:14:19 13.5 C 7.37 g/m*3 13.5 C 0 km/h
253 02-06-2011 02:26:19 13.5 C 7.25 g/m*3 13.5 C 0 km/h
254 02-06-2011 02:38:19 13.3 C 6.93 g/m*3 13.3 C 0 km/h
255 02-06-2011 02:50:19 13.3 C 7.16 g/m*3 13.3 C 0 km/h
256 02-06-2011 03:02:19 13.1 C 6.85 g/m*3 13.1 C 0 km/h
257 02-06-2011 03:14:19 12.7 C 6.68 g/m*3 12.7 C 0 km/h
258 02-06-2011 03:26:19 12.2 C 6.58 g/m*3 12.2 C 0 km/h
259 02-06-2011 03:38:19 11.4 C 6.47 g/m*3 11.4 C 0 km/h
260 02-06-2011 03:50:19 10.7 C 6.38 g/m*3 10.7 C 0 km/h
261 02-06-2011 04:02:19 10.4 C 6.36 g/m*3 10.4 C 0 km/h
262 02-06-2011 04:14:20 10.5 C 6.3 g/m*3 10.5 C 0 km/h
263 02-06-2011 04:26:20 10.7 C 6.38 g/m*3 10.7 C 0 km/h
264 02-06-2011 04:38:20 10.6 C 6.25 g/m*3 10.6 C 0 km/h
265 02-06-2011 04:50:20 10 C 6.2 g/m*3 10 C 0 km/h
266 02-06-2011 05:02:20 9.6 C 6.23 g/m*3 9.6 C 0 km/h
267 02-06-2011 05:14:20 9.2 C 6.16 g/m*3 9.2 C 0 km/h
268 02-06-2011 05:26:20 9.1 C 6.21 g/m*3 9.1 C 0 km/h
269 02-06-2011 05:38:20 8.9 C 6.31 g/m*3 8.9 C 0 km/h
270 02-06-2011 05:50:20 8.7 C 6.14 g/m*3 8.7 C 0 km/h
271 02-06-2011 06:02:20 8.6 C 6.19 g/m*3 8.6 C 0 km/h
272 02-06-2011 06:14:20 8.8 C 6.35 g/m*3 8.8 C 0 km/h
273 02-06-2011 06:26:20 9 C 6.35 g/m*3 9 C 0 km/h
274 02-06-2011 06:38:20 8.9 C 6.48 g/m*3 8.9 C 0 km/h
275 02-06-2011 06:50:20 8.8 C 6.44 g/m*3 8.8 C 0 km/h
Sensor: Nr:Datum:Temp:Abs-Feuchte:Windchill:Wind:
Aussen-T/F 276 02-06-2011 07:02:04 8.9 C 6.57 g/m*3 8.9 C 0 km/h
277 02-06-2011 07:14:04 9.3 C 6.56 g/m*3 9.3 C 0 km/h
278 02-06-2011 07:26:03 9.7 C 6.64 g/m*3 9.7 C 0 km/h
279 02-06-2011 07:38:04 10 C 6.58 g/m*3 10 C 0 km/h
280 02-06-2011 07:50:03 10 C 6.48 g/m*3 10 C 0 km/h
281 02-06-2011 08:02:02 10 C 6.58 g/m*3 10 C 0 km/h
282 02-06-2011 08:14:02 10.5 C 6.79 g/m*3 10.5 C 0 km/h
283 02-06-2011 08:26:03 10.8 C 6.92 g/m*3 10.8 C 0 km/h
284 02-06-2011 08:38:03 11.2 C 6.89 g/m*3 11.2 C 0 km/h
285 02-06-2011 08:50:01 11.8 C 6.95 g/m*3 11.8 C 0 km/h
286 02-06-2011 09:02:02 12.3 C 6.84 g/m*3 12.3 C 0 km/h
287 02-06-2011 09:14:02 13 C 6.8 g/m*3 13 C 0 km/h
288 02-06-2011 09:26:02 13.5 C 6.32 g/m*3 13.5 C 0 km/h
289 02-06-2011 09:38:02 13.5 C 6.32 g/m*3 13.5 C 0 km/h
290 02-06-2011 09:50:02 13.5 C 6.32 g/m*3 13.5 C 0 km/h
291 02-06-2011 10:02:02 13.5 C 6.32 g/m*3 13.5 C 0 km/h
292 02-06-2011 10:14:02 13.5 C 6.32 g/m*3 13.5 C 0 km/h
293 02-06-2011 10:26:02 13.5 C 6.32 g/m*3 13.5 C 0 km/h
294 02-06-2011 10:38:02 13.5 C 6.32 g/m*3 13.5 C 0 km/h
295 02-06-2011 10:50:02 13.5 C 6.32 g/m*3 13.5 C 0 km/h
296 02-06-2011 11:02:02 13.5 C 6.32 g/m*3 13.5 C 0 km/h
297 02-06-2011 11:14:02 19.1 C 4.26 g/m*3 19.1 C 0 km/h
298 02-06-2011 11:26:01 19.2 C 4.12 g/m*3 19.2 C 0 km/h
299 02-06-2011 11:38:03 19.3 C 4.15 g/m*3 19.3 C 0 km/h
300 02-06-2011 11:50:02 19.3 C 4.15 g/m*3 19.3 C 0 km/h
Sensor: Nr:Datum:Temp:Abs-Feuchte:Windchill:Wind:
Aussen-T/F 301 02-06-2011 12:02:04 19.3 C 4.15 g/m*3 19.3 C 0 km/h
302 02-06-2011 12:14:04 19.3 C 4.15 g/m*3 19.3 C 0 km/h
303 02-06-2011 12:26:02 20.1 C 4 g/m*3 20.1 C 0 km/h
304 02-06-2011 12:38:02 20.1 C 3.82 g/m*3 20.1 C 0 km/h
305 02-06-2011 12:50:02 20.5 C 3.74 g/m*3 20.5 C 0 km/h
306 02-06-2011 13:02:03 21.1 C 3.87 g/m*3 21.1 C 0 km/h
307 02-06-2011 13:14:03 21.4 C 3.75 g/m*3 21.4 C 0 km/h
308 02-06-2011 13:26:02 25.3 C 4.68 g/m*3 25.3 C 0 km/h
309 02-06-2011 13:38:03 27.9 C 5.41 g/m*3 27.9 C 0 km/h
310 02-06-2011 13:50:02 30 C 6.06 g/m*3 30 C 0 km/h
311 02-06-2011 14:02:02 30.1 C 6.1 g/m*3 30.1 C 0 km/h
312 02-06-2011 14:14:02 30.4 C 6.2 g/m*3 30.4 C 0 km/h
313 02-06-2011 14:26:02 30.3 C 6.16 g/m*3 30.3 C 0 km/h
314 02-06-2011 14:38:02 30.2 C 6.13 g/m*3 30.2 C 0 km/h
315 02-06-2011 14:50:02 30.1 C 6.1 g/m*3 30.1 C 0 km/h
316 02-06-2011 15:02:03 30.1 C 6.1 g/m*3 30.1 C 0 km/h
317 02-06-2011 15:14:03 30 C 6.06 g/m*3 30 C 0 km/h
318 02-06-2011 15:26:03 30.3 C 6.16 g/m*3 30.3 C 0 km/h
319 02-06-2011 15:38:03 30.7 C 6.3 g/m*3 30.7 C 0 km/h
320 02-06-2011 15:50:02 30.7 C 6.3 g/m*3 30.7 C 0 km/h
321 02-06-2011 16:02:03 30.1 C 6.1 g/m*3 30.1 C 0 km/h
322 02-06-2011 16:14:03 30.4 C 6.2 g/m*3 30.4 C 0 km/h
323 02-06-2011 16:26:02 30.1 C 6.1 g/m*3 30.1 C 0 km/h
324 02-06-2011 16:38:02 31.2 C 6.47 g/m*3 31.2 C 0 km/h
325 02-06-2011 16:50:03 31.3 C 6.5 g/m*3 31.3 C 0 km/h
Sensor: Nr:Datum:Temp:Abs-Feuchte:Windchill:Wind:
Aussen-T/F 326 02-06-2011 17:02:03 31.1 C 6.43 g/m*3 31.1 C 0 km/h
327 02-06-2011 17:14:03 30.7 C 6.3 g/m*3 30.7 C 0 km/h
328 02-06-2011 17:26:03 30.2 C 6.13 g/m*3 30.2 C 0 km/h
329 02-06-2011 17:38:02 30.8 C 6.33 g/m*3 30.8 C 0 km/h
330 02-06-2011 17:50:02 30.6 C 6.26 g/m*3 30.6 C 0 km/h
331 02-06-2011 18:02:01 30.6 C 6.26 g/m*3 30.6 C 0 km/h
332 02-06-2011 18:14:01 30.6 C 6.26 g/m*3 30.6 C 0 km/h
333 02-06-2011 18:26:01 30.6 C 6.26 g/m*3 30.6 C 0 km/h
334 02-06-2011 18:38:02 30.6 C 6.26 g/m*3 30.6 C 0 km/h
335 02-06-2011 18:50:01 30.6 C 6.26 g/m*3 30.6 C 0 km/h
336 02-06-2011 19:02:02 30.6 C 6.26 g/m*3 30.6 C 0 km/h
337 02-06-2011 19:14:02 30.6 C 6.26 g/m*3 30.6 C 0 km/h
338 02-06-2011 19:26:02 30.6 C 6.26 g/m*3 30.6 C 0 km/h
339 02-06-2011 19:38:02 30.6 C 6.26 g/m*3 30.6 C 0 km/h
340 02-06-2011 19:50:01 30.6 C 6.26 g/m*3 30.6 C 0 km/h
341 02-06-2011 20:02:02 30.6 C 6.26 g/m*3 30.6 C 0 km/h
342 02-06-2011 20:14:02 30.6 C 6.26 g/m*3 30.6 C 0 km/h
343 02-06-2011 20:26:02 30.6 C 6.26 g/m*3 30.6 C 0 km/h
344 02-06-2011 20:38:01 30.6 C 6.26 g/m*3 30.6 C 0 km/h
345 02-06-2011 20:50:02 30.6 C 6.26 g/m*3 30.6 C 0 km/h
346 02-06-2011 21:02:02 30.6 C 6.26 g/m*3 30.6 C 0 km/h
347 02-06-2011 21:14:02 30.6 C 6.26 g/m*3 30.6 C 0 km/h
348 02-06-2011 21:26:02 30.6 C 6.26 g/m*3 30.6 C 0 km/h
349 02-06-2011 21:38:02 30.6 C 6.26 g/m*3 30.6 C 0 km/h
350 02-06-2011 21:50:02 30.6 C 6.26 g/m*3 30.6 C 0 km/h
Sensor: Nr:Datum:Temp:Abs-Feuchte:Windchill:Wind:
Aussen-T/F 351 02-06-2011 22:02:02 30.6 C 6.26 g/m*3 30.6 C 0 km/h
352 02-06-2011 22:14:02 30.6 C 6.26 g/m*3 30.6 C 0 km/h
353 02-06-2011 22:27:02 16 C 5.59 g/m*3 16 C 0 km/h
354 02-06-2011 22:39:02 16 C 5.59 g/m*3 16 C 0 km/h
355 02-06-2011 22:51:02 16 C 5.59 g/m*3 16 C 0 km/h
356 02-06-2011 23:03:02 16 C 5.59 g/m*3 16 C 0 km/h
357 02-06-2011 23:15:02 16 C 5.59 g/m*3 16 C 0 km/h
358 02-06-2011 23:27:03 16 C 5.59 g/m*3 16 C 0 km/h
359 02-06-2011 23:39:03 16 C 5.59 g/m*3 16 C 0 km/h
360 02-06-2011 23:51:03 16 C 5.59 g/m*3 16 C 0 km/h
361 03-06-2011 00:03:03 16 C 5.59 g/m*3 16 C 0 km/h
362 03-06-2011 00:15:03 16 C 5.59 g/m*3 16 C 0 km/h
363 03-06-2011 00:27:03 16 C 5.59 g/m*3 16 C 0 km/h
364 03-06-2011 00:39:03 16 C 5.59 g/m*3 16 C 0 km/h
365 03-06-2011 00:51:03 16 C 5.59 g/m*3 16 C 0 km/h
366 03-06-2011 01:03:03 13.3 C 5.66 g/m*3 13.3 C 0 km/h
367 03-06-2011 01:15:03 13.2 C 5.63 g/m*3 13.2 C 0 km/h
368 03-06-2011 01:27:03 13.1 C 5.82 g/m*3 13.1 C 0 km/h
369 03-06-2011 01:39:03 12.9 C 5.97 g/m*3 12.9 C 0 km/h
370 03-06-2011 01:51:03 12.8 C 5.94 g/m*3 12.8 C 0 km/h
371 03-06-2011 02:03:03 12.8 C 5.71 g/m*3 12.8 C 0 km/h
372 03-06-2011 02:15:03 12.6 C 5.64 g/m*3 12.6 C 0 km/h
373 03-06-2011 02:27:03 12.4 C 5.68 g/m*3 12.4 C 0 km/h
374 03-06-2011 02:39:03 12.2 C 5.72 g/m*3 12.2 C 0 km/h
375 03-06-2011 02:51:03 11.9 C 5.82 g/m*3 11.9 C 0 km/h
Sensor: Nr:Datum:Temp:Abs-Feuchte:Windchill:Wind:
Aussen-T/F 376 03-06-2011 03:03:03 11.9 C 5.93 g/m*3 11.9 C 0 km/h
377 03-06-2011 03:15:03 11.7 C 5.96 g/m*3 11.7 C 0 km/h
378 03-06-2011 03:27:03 11.7 C 5.86 g/m*3 11.7 C 0 km/h
379 03-06-2011 03:39:04 11.6 C 5.72 g/m*3 11.6 C 0 km/h
380 03-06-2011 03:51:04 11.5 C 5.68 g/m*3 11.5 C 0 km/h
381 03-06-2011 04:03:04 11.6 C 5.72 g/m*3 11.6 C 0 km/h
382 03-06-2011 04:15:04 11.4 C 5.65 g/m*3 11.4 C 0 km/h
383 03-06-2011 04:27:04 11.3 C 5.71 g/m*3 11.3 C 0 km/h
384 03-06-2011 04:39:04 11.4 C 5.65 g/m*3 11.4 C 0 km/h
385 03-06-2011 04:51:04 11 C 5.51 g/m*3 11 C 0 km/h
386 03-06-2011 05:03:04 11 C 5.61 g/m*3 11 C 0 km/h
387 03-06-2011 05:15:04 11.2 C 5.68 g/m*3 11.2 C 0 km/h
388 03-06-2011 05:27:04 11.2 C 5.57 g/m*3 11.2 C 0 km/h
389 03-06-2011 05:39:04 11.5 C 5.78 g/m*3 11.5 C 0 km/h
390 03-06-2011 05:51:04 11.5 C 5.78 g/m*3 11.5 C 0 km/h
391 03-06-2011 06:03:04 11.7 C 5.96 g/m*3 11.7 C 0 km/h
392 03-06-2011 06:15:04 12.1 C 5.9 g/m*3 12.1 C 0 km/h
393 03-06-2011 06:27:04 12.5 C 6.38 g/m*3 12.5 C 0 km/h
394 03-06-2011 06:39:04 12.8 C 6.61 g/m*3 12.8 C 0 km/h
395 03-06-2011 06:51:04 12.9 C 6.42 g/m*3 12.9 C 0 km/h
396 03-06-2011 07:03:03 13.2 C 6.32 g/m*3 13.2 C 0 km/h
397 03-06-2011 07:15:01 13.6 C 6.36 g/m*3 13.6 C 0 km/h
398 03-06-2011 07:27:01 14.4 C 6.06 g/m*3 14.4 C 0 km/h
399 03-06-2011 07:39:02 14.9 C 6.37 g/m*3 14.9 C 0 km/h
400 03-06-2011 07:51:02 15 C 6.41 g/m*3 15 C 0 km/h
Sensor: Nr:Datum:Temp:Abs-Feuchte:Windchill:Wind:
Aussen-T/F 401 03-06-2011 08:03:03 15.1 C 6.58 g/m*3 15.1 C 0 km/h
402 03-06-2011 08:15:02 15.6 C 6.52 g/m*3 15.6 C 0 km/h
403 03-06-2011 08:27:02 16.2 C 6.21 g/m*3 16.2 C 0 km/h
404 03-06-2011 08:39:03 17 C 5.79 g/m*3 17 C 0 km/h
405 03-06-2011 08:51:02 17.7 C 6.04 g/m*3 17.7 C 0 km/h
406 03-06-2011 09:03:02 18.3 C 6.1 g/m*3 18.3 C 0 km/h
407 03-06-2011 09:15:02 18.6 C 5.89 g/m*3 18.6 C 0 km/h
408 03-06-2011 09:27:02 18.9 C 5.99 g/m*3 18.9 C 0 km/h
409 03-06-2011 09:39:02 19.5 C 5.87 g/m*3 19.5 C 0 km/h
410 03-06-2011 09:51:02 20.1 C 5.74 g/m*3 20.1 C 0 km/h
411 03-06-2011 10:03:03 20.7 C 5.94 g/m*3 20.7 C 0 km/h
412 03-06-2011 10:15:02 20.8 C 5.79 g/m*3 20.8 C 0 km/h
413 03-06-2011 10:27:02 21 C 5.86 g/m*3 21 C 0 km/h
414 03-06-2011 10:39:02 21 C 5.68 g/m*3 21 C 0 km/h
415 03-06-2011 10:51:01 21.9 C 5.79 g/m*3 21.9 C 0 km/h
416 03-06-2011 11:03:02 22.1 C 5.47 g/m*3 22.1 C 0 km/h
417 03-06-2011 11:15:02 21.9 C 5.79 g/m*3 21.9 C 0 km/h
418 03-06-2011 11:27:03 22.1 C 6.05 g/m*3 22.1 C 0 km/h
419 03-06-2011 11:39:01 22.9 C 5.72 g/m*3 22.9 C 0 km/h
420 03-06-2011 11:51:01 23 C 5.55 g/m*3 23 C 0 km/h
421 03-06-2011 12:03:02 23 C 5.34 g/m*3 23 C 0 km/h
422 03-06-2011 12:15:01 23.2 C 5.2 g/m*3 23.2 C 0 km/h
423 03-06-2011 12:27:01 23.7 C 5.78 g/m*3 23.7 C 0 km/h
424 03-06-2011 12:39:02 24.8 C 5.69 g/m*3 24.8 C 0 km/h
425 03-06-2011 12:51:02 25.1 C 5.79 g/m*3 25.1 C 0 km/h
Sensor: Nr:Datum:Temp:Abs-Feuchte:Windchill:Wind:
Aussen-T/F 426 03-06-2011 13:03:02 25.4 C 5.41 g/m*3 25.4 C 0 km/h
427 03-06-2011 13:15:02 26.1 C 5.39 g/m*3 26.1 C 0 km/h
428 03-06-2011 13:27:02 25.5 C 5.45 g/m*3 25.5 C 0 km/h
429 03-06-2011 13:39:02 26.3 C 5.69 g/m*3 26.3 C 0 km/h
430 03-06-2011 13:51:02 28.9 C 5.71 g/m*3 28.9 C 0 km/h
431 03-06-2011 14:03:02 27.5 C 5.82 g/m*3 27.5 C 0 km/h
432 03-06-2011 14:15:02 29.4 C 5.87 g/m*3 29.4 C 0 km/h
433 03-06-2011 14:27:02 29.6 C 5.94 g/m*3 29.6 C 0 km/h
434 03-06-2011 14:39:02 25.5 C 5.68 g/m*3 25.5 C 0 km/h
435 03-06-2011 14:51:02 25.4 C 6.12 g/m*3 25.4 C 0 km/h
436 03-06-2011 15:03:02 28.5 C 6.15 g/m*3 28.5 C 0 km/h
437 03-06-2011 15:15:03 30.2 C 6.13 g/m*3 30.2 C 0 km/h
438 03-06-2011 15:27:03 31 C 6.4 g/m*3 31 C 0 km/h
439 03-06-2011 15:39:02 31.5 C 6.57 g/m*3 31.5 C 0 km/h
440 03-06-2011 15:51:02 31.4 C 6.54 g/m*3 31.4 C 0 km/h
441 03-06-2011 16:03:01 30 C 6.06 g/m*3 30 C 0 km/h
442 03-06-2011 16:15:02 31.1 C 6.43 g/m*3 31.1 C 0 km/h
443 03-06-2011 16:27:02 31.4 C 6.54 g/m*3 31.4 C 0 km/h
444 03-06-2011 16:39:02 31.9 C 6.72 g/m*3 31.9 C 0 km/h
445 03-06-2011 16:51:02 30.9 C 6.37 g/m*3 30.9 C 0 km/h
446 03-06-2011 17:03:03 31.6 C 6.61 g/m*3 31.6 C 0 km/h
447 03-06-2011 17:15:02 31.2 C 6.47 g/m*3 31.2 C 0 km/h
448 03-06-2011 17:27:02 31.5 C 6.57 g/m*3 31.5 C 0 km/h
449 03-06-2011 17:39:02 31.6 C 6.61 g/m*3 31.6 C 0 km/h
450 03-06-2011 17:51:02 31.4 C 6.54 g/m*3 31.4 C 0 km/h
Sensor: Nr:Datum:Temp:Abs-Feuchte:Windchill:Wind:
Aussen-T/F 451 03-06-2011 18:03:02 30.5 C 6.23 g/m*3 30.5 C 0 km/h
452 03-06-2011 18:15:01 30.8 C 6.33 g/m*3 30.8 C 0 km/h
453 03-06-2011 18:27:01 29.4 C 5.87 g/m*3 29.4 C 0 km/h
454 03-06-2011 18:39:02 30 C 6.06 g/m*3 30 C 0 km/h
455 03-06-2011 18:51:01 30.6 C 6.26 g/m*3 30.6 C 0 km/h
456 03-06-2011 19:03:02 30.4 C 6.2 g/m*3 30.4 C 0 km/h
457 03-06-2011 19:15:01 29.4 C 5.87 g/m*3 29.4 C 0 km/h
458 03-06-2011 19:27:01 29.8 C 6.3 g/m*3 29.8 C 0 km/h
459 03-06-2011 19:39:02 27.4 C 6.31 g/m*3 27.4 C 0 km/h
460 03-06-2011 19:51:01 26.3 C 6.44 g/m*3 26.3 C 0 km/h
461 03-06-2011 20:03:02 25.3 C 6.79 g/m*3 25.3 C 0 km/h
462 03-06-2011 20:15:02 25.2 C 6.75 g/m*3 25.2 C 0 km/h
463 03-06-2011 20:27:02 24.6 C 7.88 g/m*3 24.6 C 0 km/h
464 03-06-2011 20:39:02 24 C 7.4 g/m*3 24 C 0 km/h
465 03-06-2011 20:51:02 23.7 C 7.49 g/m*3 23.7 C 0 km/h
466 03-06-2011 21:03:02 22.9 C 7.77 g/m*3 22.9 C 0 km/h
467 03-06-2011 21:15:02 22.3 C 7.31 g/m*3 22.3 C 0 km/h
468 03-06-2011 21:27:02 21.4 C 7.87 g/m*3 21.4 C 0 km/h
469 03-06-2011 21:39:03 20.8 C 7.97 g/m*3 20.8 C 0 km/h
470 03-06-2011 21:51:02 20.3 C 7.91 g/m*3 20.3 C 0 km/h
471 03-06-2011 22:03:02 20.7 C 7.74 g/m*3 20.7 C 0 km/h
472 03-06-2011 22:15:02 19.9 C 8.08 g/m*3 19.9 C 0 km/h
473 03-06-2011 22:27:03 20 C 8.12 g/m*3 20 C 0 km/h
474 03-06-2011 22:39:02 19.8 C 8.03 g/m*3 19.8 C 0 km/h
475 03-06-2011 22:52:06 19.6 C 7.93 g/m*3 19.6 C 0 km/h
Sensor: Nr:Datum:Temp:Abs-Feuchte:Windchill:Wind:
Aussen-T/F 476 03-06-2011 23:04:06 19.5 C 8.22 g/m*3 19.5 C 0 km/h
477 03-06-2011 23:16:06 19 C 8.15 g/m*3 19 C 0 km/h
478 03-06-2011 23:28:06 18.4 C 8.49 g/m*3 18.4 C 0 km/h
479 03-06-2011 23:40:06 18 C 8.45 g/m*3 18 C 0 km/h
480 03-06-2011 23:52:06 17.9 C 8.55 g/m*3 17.9 C 0 km/h
481 04-06-2011 00:04:06 17.7 C 8.45 g/m*3 17.7 C 0 km/h
482 04-06-2011 00:16:06 17.3 C 8.4 g/m*3 17.3 C 0 km/h
483 04-06-2011 00:28:06 17.4 C 8.6 g/m*3 17.4 C 0 km/h
484 04-06-2011 00:40:06 17.4 C 8.45 g/m*3 17.4 C 0 km/h
485 04-06-2011 00:52:06 17.4 C 8.74 g/m*3 17.4 C 0 km/h
486 04-06-2011 01:04:06 17 C 8.39 g/m*3 17 C 0 km/h
487 04-06-2011 01:16:06 17.1 C 8.73 g/m*3 17.1 C 0 km/h
488 04-06-2011 01:28:06 17.1 C 8.59 g/m*3 17.1 C 0 km/h
489 04-06-2011 01:40:06 16.8 C 8.58 g/m*3 16.8 C 0 km/h
490 04-06-2011 01:52:07 16.8 C 8.58 g/m*3 16.8 C 0 km/h
491 04-06-2011 02:04:07 16.4 C 8.37 g/m*3 16.4 C 0 km/h
492 04-06-2011 02:16:07 16.3 C 8.46 g/m*3 16.3 C 0 km/h
493 04-06-2011 02:28:07 16 C 8.58 g/m*3 16 C 0 km/h
494 04-06-2011 02:40:07 16 C 8.45 g/m*3 16 C 0 km/h
495 04-06-2011 02:52:07 15.9 C 8.53 g/m*3 15.9 C 0 km/h
496 04-06-2011 03:04:07 15.8 C 8.48 g/m*3 15.8 C 0 km/h
497 04-06-2011 03:16:07 15.8 C 8.62 g/m*3 15.8 C 0 km/h
498 04-06-2011 03:28:07 15.6 C 8.51 g/m*3 15.6 C 0 km/h
499 04-06-2011 03:40:07 15.6 C 8.51 g/m*3 15.6 C 0 km/h
500 04-06-2011 03:52:07 15.4 C 8.41 g/m*3 15.4 C 0 km/h
Sensor: Nr:Datum:Temp:Abs-Feuchte:Windchill:Wind:
Aussen-T/F 501 04-06-2011 04:04:07 15.3 C 8.36 g/m*3 15.3 C 0 km/h
502 04-06-2011 04:16:07 15.2 C 8.31 g/m*3 15.2 C 0 km/h
503 04-06-2011 04:28:07 15 C 8.33 g/m*3 15 C 0 km/h
504 04-06-2011 04:40:07 14.9 C 8.54 g/m*3 14.9 C 0 km/h
505 04-06-2011 04:52:07 15 C 8.33 g/m*3 15 C 0 km/h
506 04-06-2011 05:04:07 14.9 C 8.41 g/m*3 14.9 C 0 km/h
507 04-06-2011 05:16:07 14.7 C 8.31 g/m*3 14.7 C 0 km/h
508 04-06-2011 05:28:07 14.8 C 8.49 g/m*3 14.8 C 0 km/h
509 04-06-2011 05:40:07 15 C 8.33 g/m*3 15 C 0 km/h
510 04-06-2011 05:52:08 14.8 C 8.36 g/m*3 14.8 C 0 km/h
511 04-06-2011 06:04:08 15 C 8.46 g/m*3 15 C 0 km/h
512 04-06-2011 06:16:08 15 C 8.59 g/m*3 15 C 0 km/h
513 04-06-2011 06:28:08 15.2 C 8.7 g/m*3 15.2 C 0 km/h
514 04-06-2011 06:40:08 15.7 C 8.83 g/m*3 15.7 C 0 km/h
515 04-06-2011 06:52:08 16 C 8.86 g/m*3 16 C 0 km/h
516 04-06-2011 07:04:08 16.7 C 9.1 g/m*3 16.7 C 0 km/h
517 04-06-2011 07:16:08 17.4 C 9.04 g/m*3 17.4 C 0 km/h
518 04-06-2011 07:28:08 18.1 C 9.12 g/m*3 18.1 C 0 km/h
519 04-06-2011 07:40:08 18.6 C 9.39 g/m*3 18.6 C 0 km/h
520 04-06-2011 07:52:08 18.6 C 9.39 g/m*3 18.6 C 0 km/h
521 04-06-2011 08:04:08 18.5 C 9.18 g/m*3 18.5 C 0 km/h
522 04-06-2011 08:16:08 18.4 C 9.28 g/m*3 18.4 C 0 km/h
523 04-06-2011 08:28:08 18.3 C 9.54 g/m*3 18.3 C 0 km/h
524 04-06-2011 08:40:08 19 C 9.45 g/m*3 19 C 0 km/h
525 04-06-2011 08:52:02 20 C 9.51 g/m*3 20 C 0 km/h
Sensor: Nr:Datum:Temp:Abs-Feuchte:Windchill:Wind:
Aussen-T/F 526 04-06-2011 09:04:02 20.3 C 9.67 g/m*3 20.3 C 0 km/h
527 04-06-2011 09:16:02 20.8 C 9.96 g/m*3 20.8 C 0 km/h
528 04-06-2011 09:28:02 21.9 C 9.26 g/m*3 21.9 C 0 km/h
529 04-06-2011 09:40:02 22.6 C 9.24 g/m*3 22.6 C 0 km/h
530 04-06-2011 09:52:02 22.6 C 8.84 g/m*3 22.6 C 0 km/h
531 04-06-2011 10:04:02 22.9 C 9.4 g/m*3 22.9 C 0 km/h
532 04-06-2011 10:16:01 23.5 C 8.88 g/m*3 23.5 C 0 km/h
533 04-06-2011 10:28:01 24 C 8.49 g/m*3 24 C 0 km/h
534 04-06-2011 10:40:02 24 C 9.14 g/m*3 24 C 0 km/h
535 04-06-2011 10:52:03 24.4 C 8.23 g/m*3 24.4 C 0 km/h
536 04-06-2011 11:04:02 25 C 8.75 g/m*3 25 C 0 km/h
537 04-06-2011 11:16:02 25.3 C 8.43 g/m*3 25.3 C 0 km/h
538 04-06-2011 11:28:02 25.8 C 8.67 g/m*3 25.8 C 0 km/h
539 04-06-2011 11:40:03 26.2 C 8.37 g/m*3 26.2 C 0 km/h
540 04-06-2011 11:52:02 27 C 7.98 g/m*3 27 C 0 km/h
541 04-06-2011 12:04:02 27.4 C 7.89 g/m*3 27.4 C 0 km/h
542 04-06-2011 12:16:02 27.3 C 7.85 g/m*3 27.3 C 0 km/h
543 04-06-2011 12:28:02 27.3 C 7.85 g/m*3 27.3 C 0 km/h
544 04-06-2011 12:40:02 27.4 C 8.16 g/m*3 27.4 C 0 km/h
545 04-06-2011 12:52:02 27.8 C 8.07 g/m*3 27.8 C 0 km/h
546 04-06-2011 13:04:02 28.1 C 7.66 g/m*3 28.1 C 0 km/h
547 04-06-2011 13:16:02 28.7 C 7.91 g/m*3 28.7 C 0 km/h
548 04-06-2011 13:28:02 31.3 C 7.15 g/m*3 31.3 C 0 km/h
549 04-06-2011 13:40:02 32 C 6.75 g/m*3 32 C 0 km/h
550 04-06-2011 13:52:02 32.9 C 7.08 g/m*3 32.9 C 0 km/h
Sensor: Nr:Datum:Temp:Abs-Feuchte:Windchill:Wind:
Aussen-T/F 551 04-06-2011 14:04:02 33.2 C 7.2 g/m*3 33.2 C 0 km/h
552 04-06-2011 14:16:02 31.8 C 6.68 g/m*3 31.8 C 0 km/h
553 04-06-2011 14:28:02 33.2 C 7.2 g/m*3 33.2 C 0 km/h
554 04-06-2011 14:40:02 33 C 7.12 g/m*3 33 C 0 km/h
555 04-06-2011 14:52:02 32.3 C 6.86 g/m*3 32.3 C 0 km/h
556 04-06-2011 15:04:02 31.2 C 7.12 g/m*3 31.2 C 0 km/h
557 04-06-2011 15:16:02 32.6 C 6.97 g/m*3 32.6 C 0 km/h
558 04-06-2011 15:28:03 30.6 C 7.2 g/m*3 30.6 C 0 km/h
559 04-06-2011 15:40:01 30.4 C 8.06 g/m*3 30.4 C 0 km/h
560 04-06-2011 15:52:02 30.1 C 7.93 g/m*3 30.1 C 0 km/h
561 04-06-2011 16:04:01 30.2 C 7.97 g/m*3 30.2 C 0 km/h
562 04-06-2011 16:16:02 30.4 C 7.75 g/m*3 30.4 C 0 km/h
563 04-06-2011 16:28:02 26.5 C 7.01 g/m*3 26.5 C 0 km/h
564 04-06-2011 16:40:01 21.6 C 12.14 g/m*3 21.6 C 0 km/h
565 04-06-2011 16:52:02 20.7 C 13.14 g/m*3 20.7 C 0 km/h
566 04-06-2011 17:04:02 20.8 C 13.4 g/m*3 20.8 C 0 km/h
567 04-06-2011 17:16:02 23.6 C 14.25 g/m*3 23.6 C 0 km/h
568 04-06-2011 17:28:02 24.8 C 13.88 g/m*3 24.8 C 0 km/h
569 04-06-2011 17:40:02 24.6 C 13.73 g/m*3 24.6 C 0 km/h
570 04-06-2011 17:52:02 23.1 C 13.23 g/m*3 23.1 C 0 km/h
571 04-06-2011 18:04:02 22.6 C 13.86 g/m*3 22.6 C 0 km/h
572 04-06-2011 18:16:02 22.1 C 13.66 g/m*3 22.1 C 0 km/h
573 04-06-2011 18:28:02 21.4 C 13.5 g/m*3 21.4 C 0 km/h
574 04-06-2011 18:40:01 20.4 C 13.09 g/m*3 20.4 C 0 km/h
575 04-06-2011 18:52:02 20.1 C 13.04 g/m*3 20.1 C 0 km/h
Sensor: Nr:Datum:Temp:Abs-Feuchte:Windchill:Wind:
Aussen-T/F 576 04-06-2011 19:04:01 20.3 C 13.37 g/m*3 20.3 C 0 km/h
577 04-06-2011 19:16:01 20.9 C 13.48 g/m*3 20.9 C 0 km/h
578 04-06-2011 19:28:01 20.9 C 13.11 g/m*3 20.9 C 0 km/h
579 04-06-2011 19:40:02 20.6 C 12.89 g/m*3 20.6 C 0 km/h
580 04-06-2011 19:52:02 20.4 C 12.56 g/m*3 20.4 C 0 km/h
581 04-06-2011 20:04:02 20.5 C 12.46 g/m*3 20.5 C 0 km/h
582 04-06-2011 20:16:02 20.5 C 12.28 g/m*3 20.5 C 0 km/h
583 04-06-2011 20:28:02 20.4 C 12.38 g/m*3 20.4 C 0 km/h
584 04-06-2011 20:40:02 20.4 C 12.38 g/m*3 20.4 C 0 km/h
585 04-06-2011 20:52:02 20.3 C 12.49 g/m*3 20.3 C 0 km/h
586 04-06-2011 21:04:02 20 C 12.27 g/m*3 20 C 0 km/h
587 04-06-2011 21:16:02 19.5 C 12.75 g/m*3 19.5 C 0 km/h
588 04-06-2011 21:28:02 19.4 C 12.68 g/m*3 19.4 C 0 km/h
589 04-06-2011 21:40:02 19.6 C 12.32 g/m*3 19.6 C 0 km/h
590 04-06-2011 21:52:01 19.4 C 12.35 g/m*3 19.4 C 0 km/h
591 04-06-2011 22:04:01 19.4 C 12.01 g/m*3 19.4 C 0 km/h
592 04-06-2011 22:17:02 18.8 C 12.88 g/m*3 18.8 C 0 km/h
593 04-06-2011 22:29:02 18.4 C 12.9 g/m*3 18.4 C 0 km/h
594 04-06-2011 22:41:02 18.1 C 12.82 g/m*3 18.1 C 0 km/h
595 04-06-2011 22:53:03 18.1 C 12.98 g/m*3 18.1 C 0 km/h
596 04-06-2011 23:05:03 18 C 13.06 g/m*3 18 C 0 km/h
597 04-06-2011 23:17:03 18.1 C 13.13 g/m*3 18.1 C 0 km/h
598 04-06-2011 23:29:03 18 C 13.21 g/m*3 18 C 0 km/h
599 04-06-2011 23:41:03 17.9 C 13.28 g/m*3 17.9 C 0 km/h
600 04-06-2011 23:53:03 17.9 C 13.44 g/m*3 17.9 C 0 km/h
Sensor: Nr:Datum:Temp:Abs-Feuchte:Windchill:Wind:
Aussen-T/F 601 05-06-2011 00:05:03 17.9 C 13.44 g/m*3 17.9 C 0 km/h
602 05-06-2011 00:17:03 17.9 C 13.44 g/m*3 17.9 C 0 km/h
603 05-06-2011 00:29:03 17.7 C 13.28 g/m*3 17.7 C 0 km/h
604 05-06-2011 00:41:03 17.8 C 13.36 g/m*3 17.8 C 0 km/h
605 05-06-2011 00:53:03 17.7 C 13.28 g/m*3 17.7 C 0 km/h
606 05-06-2011 01:05:03 17.6 C 13.2 g/m*3 17.6 C 0 km/h
607 05-06-2011 01:17:03 17.4 C 13.04 g/m*3 17.4 C 0 km/h
608 05-06-2011 01:29:03 17.5 C 13.12 g/m*3 17.5 C 0 km/h
609 05-06-2011 01:41:03 17.2 C 12.89 g/m*3 17.2 C 0 km/h
610 05-06-2011 01:53:03 17 C 12.73 g/m*3 17 C 0 km/h
611 05-06-2011 02:05:03 16.9 C 12.8 g/m*3 16.9 C 0 km/h
612 05-06-2011 02:17:03 16.7 C 12.65 g/m*3 16.7 C 0 km/h
613 05-06-2011 02:29:03 16.5 C 12.5 g/m*3 16.5 C 0 km/h
614 05-06-2011 02:41:03 16.3 C 12.35 g/m*3 16.3 C 0 km/h
615 05-06-2011 02:53:04 16.4 C 12.42 g/m*3 16.4 C 0 km/h
616 05-06-2011 03:05:04 16.1 C 12.2 g/m*3 16.1 C 0 km/h
617 05-06-2011 03:17:04 16 C 12.13 g/m*3 16 C 0 km/h
618 05-06-2011 03:29:04 15.7 C 11.91 g/m*3 15.7 C 0 km/h
619 05-06-2011 03:41:04 15.7 C 11.91 g/m*3 15.7 C 0 km/h
620 05-06-2011 03:53:04 15.4 C 11.69 g/m*3 15.4 C 0 km/h
621 05-06-2011 04:05:04 15.5 C 11.76 g/m*3 15.5 C 0 km/h
622 05-06-2011 04:17:04 15.5 C 11.76 g/m*3 15.5 C 0 km/h
623 05-06-2011 04:29:04 15.7 C 11.91 g/m*3 15.7 C 0 km/h
624 05-06-2011 04:41:04 15.1 C 11.48 g/m*3 15.1 C 0 km/h
625 05-06-2011 04:53:04 15.1 C 11.48 g/m*3 15.1 C 0 km/h
Sensor: Nr:Datum:Temp:Abs-Feuchte:Windchill:Wind:
Aussen-T/F 626 05-06-2011 05:05:04 15.2 C 11.55 g/m*3 15.2 C 0 km/h
627 05-06-2011 05:17:04 15.3 C 11.75 g/m*3 15.3 C 0 km/h
628 05-06-2011 05:29:04 15 C 11.54 g/m*3 15 C 0 km/h
629 05-06-2011 05:41:04 15.2 C 11.68 g/m*3 15.2 C 0 km/h
630 05-06-2011 05:53:04 15.6 C 11.97 g/m*3 15.6 C 0 km/h
631 05-06-2011 06:05:04 15.8 C 12.11 g/m*3 15.8 C 0 km/h
632 05-06-2011 06:17:04 16.1 C 12.2 g/m*3 16.1 C 0 km/h
633 05-06-2011 06:29:04 16.2 C 12.41 g/m*3 16.2 C 0 km/h
634 05-06-2011 06:41:04 16.4 C 12.56 g/m*3 16.4 C 0 km/h
635 05-06-2011 06:53:04 16.3 C 12.49 g/m*3 16.3 C 0 km/h
636 05-06-2011 07:05:05 16.3 C 12.49 g/m*3 16.3 C 0 km/h
637 05-06-2011 07:17:05 16.4 C 12.56 g/m*3 16.4 C 0 km/h
638 05-06-2011 07:29:05 16.5 C 12.5 g/m*3 16.5 C 0 km/h
639 05-06-2011 07:41:05 16.7 C 12.79 g/m*3 16.7 C 0 km/h
640 05-06-2011 07:53:05 17.4 C 13.19 g/m*3 17.4 C 0 km/h
641 05-06-2011 08:05:02 17.9 C 13.59 g/m*3 17.9 C 0 km/h
642 05-06-2011 08:17:02 18 C 13.52 g/m*3 18 C 0 km/h
643 05-06-2011 08:29:02 18.4 C 13.68 g/m*3 18.4 C 0 km/h
644 05-06-2011 08:41:02 18.5 C 13.61 g/m*3 18.5 C 0 km/h
645 05-06-2011 08:53:02 18.7 C 13.45 g/m*3 18.7 C 0 km/h
646 05-06-2011 09:05:01 18.6 C 12.73 g/m*3 18.6 C 0 km/h
647 05-06-2011 09:17:02 19.5 C 12.59 g/m*3 19.5 C 0 km/h
648 05-06-2011 09:29:02 19.9 C 12.54 g/m*3 19.9 C 0 km/h
649 05-06-2011 09:41:02 19.5 C 12.25 g/m*3 19.5 C 0 km/h
650 05-06-2011 09:53:01 19.5 C 12.42 g/m*3 19.5 C 0 km/h
Sensor: Nr:Datum:Temp:Abs-Feuchte:Windchill:Wind:
Aussen-T/F 651 05-06-2011 10:05:02 19.9 C 13.4 g/m*3 19.9 C 0 km/h
652 05-06-2011 10:17:02 20.2 C 13.46 g/m*3 20.2 C 0 km/h
653 05-06-2011 10:29:02 20.6 C 13.42 g/m*3 20.6 C 0 km/h
654 05-06-2011 10:41:01 21.8 C 14.01 g/m*3 21.8 C 0 km/h
655 05-06-2011 10:53:02 21.7 C 12.97 g/m*3 21.7 C 0 km/h
656 05-06-2011 11:05:01 21.7 C 12.97 g/m*3 21.7 C 0 km/h
657 05-06-2011 11:17:01 21.7 C 12.59 g/m*3 21.7 C 0 km/h
658 05-06-2011 11:29:02 22.2 C 12.96 g/m*3 22.2 C 0 km/h
659 05-06-2011 11:41:01 22.4 C 13.31 g/m*3 22.4 C 0 km/h
660 05-06-2011 11:53:02 23.2 C 13.1 g/m*3 23.2 C 0 km/h
661 05-06-2011 12:05:02 23.7 C 12.62 g/m*3 23.7 C 0 km/h
662 05-06-2011 12:17:02 24.1 C 12.25 g/m*3 24.1 C 0 km/h
663 05-06-2011 12:29:02 23.7 C 13.9 g/m*3 23.7 C 0 km/h
664 05-06-2011 12:41:02 24.4 C 14.02 g/m*3 24.4 C 0 km/h
665 05-06-2011 12:53:01 24.8 C 13.2 g/m*3 24.8 C 0 km/h
666 05-06-2011 13:05:02 25.3 C 14.05 g/m*3 25.3 C 0 km/h
667 05-06-2011 13:17:01 24.9 C 13.73 g/m*3 24.9 C 0 km/h
668 05-06-2011 13:29:01 24.8 C 13.88 g/m*3 24.8 C 0 km/h
669 05-06-2011 13:41:02 25 C 13.81 g/m*3 25 C 0 km/h
670 05-06-2011 13:53:02 25.6 C 15 g/m*3 25.6 C 0 km/h
671 05-06-2011 14:05:02 25.3 C 14.05 g/m*3 25.3 C 0 km/h
672 05-06-2011 14:17:01 24.7 C 15.16 g/m*3 24.7 C 0 km/h
673 05-06-2011 14:29:01 24.4 C 15.58 g/m*3 24.4 C 0 km/h
674 05-06-2011 14:41:02 27.5 C 14.55 g/m*3 27.5 C 0 km/h
675 05-06-2011 14:53:02 28.1 C 11.76 g/m*3 28.1 C 0 km/h
Sensor: Nr:Datum:Temp:Abs-Feuchte:Windchill:Wind:
Aussen-T/F 676 05-06-2011 15:05:02 27.7 C 13.91 g/m*3 27.7 C 0 km/h
677 05-06-2011 15:17:01 25.3 C 12.88 g/m*3 25.3 C 0 km/h
678 05-06-2011 15:29:01 23.7 C 14.33 g/m*3 23.7 C 0 km/h
679 05-06-2011 15:41:16 21.9 C 14.67 g/m*3 21.9 C 0 km/h
680 05-06-2011 15:53:16 21.1 C 14.56 g/m*3 21.1 C 0 km/h
681 05-06-2011 16:05:16 19.5 C 13.43 g/m*3 19.5 C 0 km/h
682 05-06-2011 16:17:16 17.4 C 12 g/m*3 17.4 C 0 km/h
683 05-06-2011 16:29:16 17.3 C 12.23 g/m*3 17.3 C 0 km/h
684 05-06-2011 16:41:16 17.6 C 12.6 g/m*3 17.6 C 0 km/h
685 05-06-2011 16:53:16 17.3 C 12.37 g/m*3 17.3 C 0 km/h
686 05-06-2011 17:05:02 17.4 C 12.6 g/m*3 17.4 C 0 km/h
687 05-06-2011 17:17:02 17.5 C 12.82 g/m*3 17.5 C 0 km/h
688 05-06-2011 17:29:02 17.7 C 12.98 g/m*3 17.7 C 0 km/h
689 05-06-2011 17:41:02 17.2 C 12.59 g/m*3 17.2 C 0 km/h
690 05-06-2011 17:53:02 17.2 C 12.59 g/m*3 17.2 C 0 km/h
691 05-06-2011 18:05:01 17.2 C 12.59 g/m*3 17.2 C 0 km/h
692 05-06-2011 18:17:02 16.9 C 12.51 g/m*3 16.9 C 0 km/h
693 05-06-2011 18:29:02 16.9 C 12.51 g/m*3 16.9 C 0 km/h
694 05-06-2011 18:41:02 16.8 C 12.44 g/m*3 16.8 C 0 km/h
695 05-06-2011 18:53:02 16.8 C 12.58 g/m*3 16.8 C 0 km/h
696 05-06-2011 19:05:03 17 C 12.59 g/m*3 17 C 0 km/h
697 05-06-2011 19:17:02 17.2 C 12.74 g/m*3 17.2 C 0 km/h
698 05-06-2011 19:29:02 17.4 C 13.04 g/m*3 17.4 C 0 km/h
699 05-06-2011 19:41:02 17.7 C 13.28 g/m*3 17.7 C 0 km/h
700 05-06-2011 19:53:01 17.8 C 13.36 g/m*3 17.8 C 0 km/h
Sensor: Nr:Datum:Temp:Abs-Feuchte:Windchill:Wind:
Aussen-T/F 701 05-06-2011 20:05:02 17.8 C 13.2 g/m*3 17.8 C 0 km/h
702 05-06-2011 20:17:01 17.8 C 13.2 g/m*3 17.8 C 0 km/h
703 05-06-2011 20:29:01 17.6 C 13.05 g/m*3 17.6 C 0 km/h
704 05-06-2011 20:41:02 17.3 C 12.82 g/m*3 17.3 C 0 km/h
705 05-06-2011 20:53:01 17.3 C 12.82 g/m*3 17.3 C 0 km/h
706 05-06-2011 21:05:02 17.2 C 12.74 g/m*3 17.2 C 0 km/h
707 05-06-2011 21:17:01 17 C 12.59 g/m*3 17 C 0 km/h
708 05-06-2011 21:29:01 16.8 C 12.58 g/m*3 16.8 C 0 km/h
709 05-06-2011 21:41:02 16.7 C 12.51 g/m*3 16.7 C 0 km/h
710 05-06-2011 21:53:01 16.7 C 12.65 g/m*3 16.7 C 0 km/h
711 05-06-2011 22:05:01 16.7 C 12.65 g/m*3 16.7 C 0 km/h
712 05-06-2011 22:17:02 16.8 C 12.72 g/m*3 16.8 C 0 km/h
713 05-06-2011 22:29:02 16.8 C 12.72 g/m*3 16.8 C 0 km/h
714 05-06-2011 22:41:01 16.4 C 12.42 g/m*3 16.4 C 0 km/h
715 05-06-2011 22:53:03 16.2 C 12.27 g/m*3 16.2 C 0 km/h
716 05-06-2011 23:06:05 16.1 C 12.2 g/m*3 16.1 C 0 km/h
717 05-06-2011 23:18:05 16 C 12.13 g/m*3 16 C 0 km/h
718 05-06-2011 23:30:05 15.9 C 12.05 g/m*3 15.9 C 0 km/h
719 05-06-2011 23:42:05 15.5 C 11.76 g/m*3 15.5 C 0 km/h
720 05-06-2011 23:54:05 15 C 11.41 g/m*3 15 C 0 km/h
721 06-06-2011 00:06:05 15.3 C 11.62 g/m*3 15.3 C 0 km/h
722 06-06-2011 00:18:05 15.3 C 11.75 g/m*3 15.3 C 0 km/h
723 06-06-2011 00:30:06 14.9 C 11.47 g/m*3 14.9 C 0 km/h
724 06-06-2011 00:42:06 15 C 11.41 g/m*3 15 C 0 km/h
725 06-06-2011 00:54:06 15 C 11.54 g/m*3 15 C 0 km/h
Sensor: Nr:Datum:Temp:Abs-Feuchte:Windchill:Wind:
Aussen-T/F 726 06-06-2011 01:06:06 15.1 C 11.61 g/m*3 15.1 C 0 km/h
727 06-06-2011 01:18:06 15.1 C 11.61 g/m*3 15.1 C 0 km/h
728 06-06-2011 01:30:06 14.9 C 11.6 g/m*3 14.9 C 0 km/h
729 06-06-2011 01:42:06 15 C 11.54 g/m*3 15 C 0 km/h
730 06-06-2011 01:54:06 15 C 11.54 g/m*3 15 C 0 km/h
731 06-06-2011 02:06:06 15.1 C 11.61 g/m*3 15.1 C 0 km/h
732 06-06-2011 02:18:06 15.1 C 11.61 g/m*3 15.1 C 0 km/h
733 06-06-2011 02:30:06 15.1 C 11.61 g/m*3 15.1 C 0 km/h
734 06-06-2011 02:42:06 15 C 11.54 g/m*3 15 C 0 km/h
735 06-06-2011 02:54:06 15 C 11.54 g/m*3 15 C 0 km/h
736 06-06-2011 03:06:06 15.1 C 11.61 g/m*3 15.1 C 0 km/h
737 06-06-2011 03:18:06 14.9 C 11.6 g/m*3 14.9 C 0 km/h
738 06-06-2011 03:30:06 15 C 11.54 g/m*3 15 C 0 km/h
739 06-06-2011 03:42:06 14.5 C 11.32 g/m*3 14.5 C 0 km/h
740 06-06-2011 03:54:06 14.4 C 11.25 g/m*3 14.4 C 0 km/h
741 06-06-2011 04:06:06 14.4 C 11.25 g/m*3 14.4 C 0 km/h
742 06-06-2011 04:18:06 13.8 C 10.84 g/m*3 13.8 C 0 km/h
743 06-06-2011 04:30:06 14 C 10.98 g/m*3 14 C 0 km/h
744 06-06-2011 04:42:07 14 C 10.98 g/m*3 14 C 0 km/h
745 06-06-2011 04:54:07 13.7 C 10.78 g/m*3 13.7 C 0 km/h
746 06-06-2011 05:06:07 14 C 10.98 g/m*3 14 C 0 km/h
747 06-06-2011 05:18:07 13.6 C 10.71 g/m*3 13.6 C 0 km/h
748 06-06-2011 05:30:07 13.6 C 10.71 g/m*3 13.6 C 0 km/h
749 06-06-2011 05:42:07 13.5 C 10.64 g/m*3 13.5 C 0 km/h
750 06-06-2011 05:54:07 13.7 C 10.78 g/m*3 13.7 C 0 km/h
Sensor: Nr:Datum:Temp:Abs-Feuchte:Windchill:Wind:
Aussen-T/F 751 06-06-2011 06:06:07 13.7 C 10.78 g/m*3 13.7 C 0 km/h
752 06-06-2011 06:18:07 14 C 10.98 g/m*3 14 C 0 km/h
753 06-06-2011 06:30:07 14.2 C 11.11 g/m*3 14.2 C 0 km/h
754 06-06-2011 06:42:07 14.4 C 11.25 g/m*3 14.4 C 0 km/h
755 06-06-2011 06:54:07 14.8 C 11.53 g/m*3 14.8 C 0 km/h
756 06-06-2011 07:06:07 14.9 C 11.6 g/m*3 14.9 C 0 km/h
757 06-06-2011 07:18:04 15.2 C 11.68 g/m*3 15.2 C 0 km/h
758 06-06-2011 07:30:04 15.4 C 11.82 g/m*3 15.4 C 0 km/h
759 06-06-2011 07:42:04 15.5 C 11.9 g/m*3 15.5 C 0 km/h
760 06-06-2011 07:54:03 15.7 C 12.04 g/m*3 15.7 C 0 km/h
761 06-06-2011 08:06:02 16.1 C 12.34 g/m*3 16.1 C 0 km/h
762 06-06-2011 08:18:02 16.8 C 12.87 g/m*3 16.8 C 0 km/h
763 06-06-2011 08:30:02 17 C 12.88 g/m*3 17 C 0 km/h
764 06-06-2011 08:42:02 18.3 C 13.76 g/m*3 18.3 C 0 km/h
765 06-06-2011 08:54:02 18.1 C 13.44 g/m*3 18.1 C 0 km/h
766 06-06-2011 09:06:01 18.3 C 13.29 g/m*3 18.3 C 0 km/h
767 06-06-2011 09:18:02 18.1 C 12.82 g/m*3 18.1 C 0 km/h
768 06-06-2011 09:30:02 18.1 C 12.98 g/m*3 18.1 C 0 km/h
769 06-06-2011 09:42:02 18.3 C 12.98 g/m*3 18.3 C 0 km/h
770 06-06-2011 09:54:02 18.8 C 13.37 g/m*3 18.8 C 0 km/h
771 06-06-2011 10:06:02 19 C 13.53 g/m*3 19 C 0 km/h
772 06-06-2011 10:18:02 19.6 C 13.34 g/m*3 19.6 C 0 km/h
773 06-06-2011 10:30:02 20.7 C 13.14 g/m*3 20.7 C 0 km/h
774 06-06-2011 10:42:02 21.3 C 11.93 g/m*3 21.3 C 0 km/h
775 06-06-2011 10:54:02 21.4 C 12 g/m*3 21.4 C 0 km/h
Sensor: Nr:Datum:Temp:Abs-Feuchte:Windchill:Wind:
Aussen-T/F 776 06-06-2011 11:06:02 21.9 C 11.77 g/m*3 21.9 C 0 km/h
777 06-06-2011 11:18:02 22.9 C 10.83 g/m*3 22.9 C 0 km/h
778 06-06-2011 11:30:02 21.5 C 10.75 g/m*3 21.5 C 0 km/h
779 06-06-2011 11:42:02 22.3 C 10.86 g/m*3 22.3 C 0 km/h
780 06-06-2011 11:54:02 22.9 C 11.24 g/m*3 22.9 C 0 km/h
781 06-06-2011 12:06:02 23 C 11.1 g/m*3 23 C 0 km/h
782 06-06-2011 12:18:02 22.9 C 10.83 g/m*3 22.9 C 0 km/h
783 06-06-2011 12:30:02 23.5 C 10.79 g/m*3 23.5 C 0 km/h
784 06-06-2011 12:42:02 23.9 C 11.03 g/m*3 23.9 C 0 km/h
785 06-06-2011 12:54:02 24.2 C 10.78 g/m*3 24.2 C 0 km/h
786 06-06-2011 13:06:01 24.6 C 11.25 g/m*3 24.6 C 0 km/h
787 06-06-2011 13:18:02 24.6 C 10.35 g/m*3 24.6 C 0 km/h
788 06-06-2011 13:30:02 29.1 C 10.11 g/m*3 29.1 C 0 km/h
789 06-06-2011 13:42:01 27.8 C 9.95 g/m*3 27.8 C 0 km/h
790 06-06-2011 13:54:02 27 C 9.01 g/m*3 27 C 0 km/h
791 06-06-2011 14:06:01 28.3 C 9.68 g/m*3 28.3 C 0 km/h
792 06-06-2011 14:18:01 27.3 C 9.42 g/m*3 27.3 C 0 km/h
793 06-06-2011 14:30:01 26.7 C 9.37 g/m*3 26.7 C 0 km/h
794 06-06-2011 14:42:02 26.4 C 8.96 g/m*3 26.4 C 0 km/h
795 06-06-2011 14:54:02 26.5 C 10.01 g/m*3 26.5 C 0 km/h
796 06-06-2011 15:06:02 26.2 C 8.86 g/m*3 26.2 C 0 km/h
797 06-06-2011 15:18:01 25.8 C 9.87 g/m*3 25.8 C 0 km/h
798 06-06-2011 15:30:01 25.5 C 11.6 g/m*3 25.5 C 0 km/h
799 06-06-2011 15:42:02 27.2 C 10.15 g/m*3 27.2 C 0 km/h
800 06-06-2011 15:54:02 25.1 C 9.26 g/m*3 25.1 C 0 km/h
Sensor: Nr:Datum:Temp:Abs-Feuchte:Windchill:Wind:
Aussen-T/F 801 06-06-2011 16:06:02 24.8 C 10.24 g/m*3 24.8 C 0 km/h
802 06-06-2011 16:18:01 25.1 C 10.19 g/m*3 25.1 C 0 km/h
803 06-06-2011 16:30:01 26.1 C 10.28 g/m*3 26.1 C 0 km/h
804 06-06-2011 16:42:02 25.8 C 10.11 g/m*3 25.8 C 0 km/h
805 06-06-2011 16:54:02 23 C 8.63 g/m*3 23 C 0 km/h
806 06-06-2011 17:06:02 21.1 C 8.84 g/m*3 21.1 C 0 km/h
807 06-06-2011 17:18:01 18 C 9.83 g/m*3 18 C 0 km/h
808 06-06-2011 17:30:01 16.9 C 10.79 g/m*3 16.9 C 0 km/h
809 06-06-2011 17:42:02 16.4 C 10.89 g/m*3 16.4 C 0 km/h
810 06-06-2011 17:54:01 16.3 C 11.38 g/m*3 16.3 C 0 km/h
811 06-06-2011 18:06:02 16.4 C 11.72 g/m*3 16.4 C 0 km/h
812 06-06-2011 18:18:02 17 C 12.01 g/m*3 17 C 0 km/h
813 06-06-2011 18:30:02 16.8 C 12.01 g/m*3 16.8 C 0 km/h
814 06-06-2011 18:42:01 17.2 C 12.3 g/m*3 17.2 C 0 km/h
815 06-06-2011 18:54:02 17.2 C 12.3 g/m*3 17.2 C 0 km/h
816 06-06-2011 19:06:01 17.2 C 12.3 g/m*3 17.2 C 0 km/h
817 06-06-2011 19:18:02 17.5 C 12.67 g/m*3 17.5 C 0 km/h
818 06-06-2011 19:30:03 17.8 C 12.9 g/m*3 17.8 C 0 km/h
819 06-06-2011 19:42:01 18.1 C 12.82 g/m*3 18.1 C 0 km/h
820 06-06-2011 19:54:02 18.1 C 12.82 g/m*3 18.1 C 0 km/h
821 06-06-2011 20:06:02 18.1 C 12.67 g/m*3 18.1 C 0 km/h
822 06-06-2011 20:18:02 18.1 C 12.67 g/m*3 18.1 C 0 km/h
823 06-06-2011 20:30:02 18.1 C 12.67 g/m*3 18.1 C 0 km/h
824 06-06-2011 20:42:49 17.5 C 12.52 g/m*3 17.5 C 0 km/h
825 06-06-2011 20:54:49 17.2 C 12.45 g/m*3 17.2 C 0 km/h
Sensor: Nr:Datum:Temp:Abs-Feuchte:Windchill:Wind:
Aussen-T/F 826 06-06-2011 21:06:49 16.8 C 12.15 g/m*3 16.8 C 0 km/h
827 06-06-2011 21:18:03 16.5 C 12.08 g/m*3 16.5 C 0 km/h
828 06-06-2011 21:30:03 16.3 C 11.93 g/m*3 16.3 C 0 km/h
829 06-06-2011 21:42:02 16.2 C 12 g/m*3 16.2 C 0 km/h
830 06-06-2011 21:55:02 15.9 C 11.78 g/m*3 15.9 C 0 km/h
831 06-06-2011 22:07:02 15.9 C 11.92 g/m*3 15.9 C 0 km/h
832 06-06-2011 22:19:02 15.6 C 11.7 g/m*3 15.6 C 0 km/h
833 06-06-2011 22:31:02 15.3 C 11.49 g/m*3 15.3 C 0 km/h
834 06-06-2011 22:43:02 15.8 C 11.98 g/m*3 15.8 C 0 km/h
835 06-06-2011 22:55:02 15.6 C 11.84 g/m*3 15.6 C 0 km/h
836 06-06-2011 23:07:03 15.5 C 11.76 g/m*3 15.5 C 0 km/h
837 06-06-2011 23:19:03 15.7 C 11.91 g/m*3 15.7 C 0 km/h
838 06-06-2011 23:31:03 15.6 C 11.84 g/m*3 15.6 C 0 km/h
839 06-06-2011 23:43:03 15.6 C 11.84 g/m*3 15.6 C 0 km/h
840 06-06-2011 23:55:03 15.4 C 11.69 g/m*3 15.4 C 0 km/h

Legende:
   Min
   Max


Maximal/Minimal-Werte vom 31.05.2011 - 06.06.2011

Sensor Min Max Avg
Temp
(Aussen-T/F)
8.6 °C
02-06-2011  06:02:20
33.2 °C
04-06-2011  14:04:02
18.34 °C
Abs-Feuchte
(Aussen-T/F)
3.74 g/m*3
02-06-2011  12:50:02
15.58 g/m*3
05-06-2011  14:29:01
8.83 g/m*3
Windchill
(Aussen-T/F)
8.6 C
02-06-2011  06:02:20
33.2 C
04-06-2011  14:04:02
18.32 C

Die Daten stammen von einer Davis Vantage Pro 2 Wetter-Station und werden unter Linux mit der Software wview2wettercgi und aufbereitet. Alle Angaben erfolgen ohne Gewähr für ihre Vollständigkeit oder Richtigkeit.
Kontakt: Rainer Krienke krienke@uni-koblenz.de . Meine Webseiten an der Uni Koblenz oder privat.
Version: $Revision: 0.78 $